Yadkin College, North Carolina
Current Conditions -  °F | °C
As of 5:35 AM on Monday 22 Dec 2014 (Local Time) from KEXX Reporting Station
Haze Haze  
Wind Chill: 31°   Ceiling: 700
Heat Index: 37°   Visibility: 5mi
Dew Point: 35°   Wind: 7mph
Humidity: 94%   Direction: 20°NNE
Pressure: 30.13"   Gusts: NA
Location:  35.7974°N, 80.2541°W
Report Text: KEXX 221035Z AUTO 02006KT 5SM BR OVC007 03/02 A3013 RMK AO2 T00270018
Loading
Personal Weather Stations






























Interactive Weather Map New forecast layout! Learn more

10-Day Weather Forecast

Advertisements
Track Severe Weather on mobile